createdAt,value
2023-05-17T00:00:47.083Z,20.65
2023-05-17T00:03:16.531Z,20.65
2023-05-17T00:05:45.421Z,20.63
2023-05-17T00:08:14.727Z,20.63
2023-05-17T00:10:44.037Z,20.62
2023-05-17T00:13:13.341Z,20.62
2023-05-17T00:15:42.197Z,20.61
2023-05-17T00:18:11.198Z,20.61
2023-05-17T00:20:40.662Z,20.60
2023-05-17T00:23:09.606Z,20.60
2023-05-17T00:25:38.340Z,20.59
2023-05-17T00:28:07.251Z,20.59
2023-05-17T00:30:36.092Z,20.59
2023-05-17T00:33:04.991Z,20.58
2023-05-17T00:35:33.994Z,20.57
2023-05-17T00:38:02.201Z,20.58
2023-05-17T00:40:31.207Z,20.56
2023-05-17T00:42:59.970Z,20.56
2023-05-17T00:45:29.497Z,20.55
2023-05-17T00:47:59.168Z,20.54
2023-05-17T00:50:27.395Z,20.55
2023-05-17T00:52:56.005Z,20.53
2023-05-17T00:55:24.535Z,20.52
2023-05-17T00:57:53.500Z,20.52
2023-05-17T01:00:22.948Z,20.52
2023-05-17T01:02:51.789Z,20.51
2023-05-17T01:05:20.223Z,20.51
2023-05-17T01:07:48.986Z,20.50
2023-05-17T01:10:17.816Z,20.49
2023-05-17T01:12:47.094Z,20.50
2023-05-17T01:15:15.500Z,20.48
2023-05-17T01:17:44.910Z,20.47
2023-05-17T01:20:14.335Z,20.47
2023-05-17T01:22:43.675Z,20.47
2023-05-17T01:25:12.034Z,20.47
2023-05-17T01:27:40.976Z,20.45
2023-05-17T01:30:10.228Z,20.45
2023-05-17T01:32:39.522Z,20.46
2023-05-17T01:35:09.212Z,20.45
2023-05-17T01:37:38.054Z,20.44
2023-05-17T01:40:06.855Z,20.44
2023-05-17T01:42:35.433Z,20.45
2023-05-17T01:45:03.588Z,20.43
2023-05-17T01:47:32.692Z,20.43
2023-05-17T01:50:01.693Z,20.42
2023-05-17T01:52:30.596Z,20.41
2023-05-17T01:54:59.841Z,20.41
2023-05-17T01:57:28.252Z,20.41
2023-05-17T01:59:56.747Z,20.41
2023-05-17T02:02:26.172Z,20.40
2023-05-17T02:04:55.711Z,20.39
2023-05-17T02:07:23.676Z,20.40
2023-05-17T02:09:52.569Z,20.39
2023-05-17T02:12:21.626Z,20.39
2023-05-17T02:14:50.828Z,20.38
2023-05-17T02:17:20.415Z,20.37
2023-05-17T02:19:50.162Z,20.38
2023-05-17T02:22:19.223Z,20.38
2023-05-17T02:24:48.176Z,20.38
2023-05-17T02:27:17.275Z,20.37
2023-05-17T02:29:46.782Z,20.37
2023-05-17T02:32:16.057Z,20.38
2023-05-17T02:34:47.188Z,20.37
2023-05-17T02:37:15.585Z,20.38
2023-05-17T02:39:45.753Z,20.37
2023-05-17T02:42:15.116Z,20.38
2023-05-17T02:44:44.448Z,20.37
2023-05-17T02:47:14.214Z,20.37
2023-05-17T02:49:43.404Z,20.37
2023-05-17T02:52:12.560Z,20.37
2023-05-17T02:54:41.243Z,20.37
2023-05-17T02:57:09.747Z,20.37
2023-05-17T02:59:38.239Z,20.38
2023-05-17T03:02:07.763Z,20.37
2023-05-17T03:04:36.970Z,20.36
2023-05-17T03:07:07.106Z,20.37
2023-05-17T03:09:36.513Z,20.36
2023-05-17T03:12:05.513Z,20.37
2023-05-17T03:14:36.006Z,20.36
2023-05-17T03:17:05.144Z,20.37
2023-05-17T03:19:35.815Z,20.38
2023-05-17T03:22:04.412Z,20.37
2023-05-17T03:24:34.217Z,20.37
2023-05-17T03:27:02.801Z,20.37
2023-05-17T03:29:32.587Z,20.37
2023-05-17T03:32:01.645Z,20.37
2023-05-17T03:34:30.395Z,20.37
2023-05-17T03:36:58.663Z,20.37
2023-05-17T03:39:27.867Z,20.36
2023-05-17T03:41:57.279Z,20.36
2023-05-17T03:44:26.717Z,20.35
2023-05-17T03:46:55.567Z,20.37
2023-05-17T03:49:25.580Z,20.37
2023-05-17T03:51:55.087Z,20.36
2023-05-17T03:54:23.996Z,20.38
2023-05-17T03:56:52.457Z,20.39
2023-05-17T03:59:21.281Z,20.39
2023-05-17T04:01:49.687Z,20.40
2023-05-17T04:04:18.181Z,20.40
2023-05-17T04:06:47.160Z,20.41
2023-05-17T04:09:17.267Z,20.43
2023-05-17T04:11:45.840Z,20.44
2023-05-17T04:14:14.504Z,20.43
2023-05-17T04:16:42.951Z,20.46
2023-05-17T04:19:12.077Z,20.47
2023-05-17T04:21:41.287Z,20.48
2023-05-17T04:24:09.840Z,20.49
2023-05-17T04:26:38.872Z,20.49
2023-05-17T04:29:08.173Z,20.50
2023-05-17T04:31:37.857Z,20.52
2023-05-17T04:34:06.875Z,20.52
2023-05-17T04:36:35.906Z,20.53
2023-05-17T04:39:05.037Z,20.54
2023-05-17T04:41:34.222Z,20.54
2023-05-17T04:44:06.051Z,20.56
2023-05-17T04:46:37.438Z,20.57
2023-05-17T04:49:06.314Z,20.59
2023-05-17T04:51:34.297Z,20.59
2023-05-17T04:54:03.799Z,20.61
2023-05-17T04:56:31.989Z,20.61
2023-05-17T04:58:59.913Z,20.62
2023-05-17T05:01:29.039Z,20.64
2023-05-17T05:03:59.354Z,20.64
2023-05-17T05:06:29.897Z,20.64
2023-05-17T05:08:59.231Z,20.68
2023-05-17T05:11:27.798Z,20.68
2023-05-17T05:13:56.410Z,20.70
2023-05-17T05:16:24.965Z,20.72
2023-05-17T05:18:53.823Z,20.75
2023-05-17T05:21:23.637Z,20.74
2023-05-17T05:23:52.877Z,20.76
2023-05-17T05:26:21.447Z,20.77
2023-05-17T05:28:50.768Z,20.78
2023-05-17T05:31:20.256Z,20.78
2023-05-17T05:33:56.926Z,20.79
2023-05-17T05:36:26.721Z,20.80
2023-05-17T05:38:55.969Z,20.80
2023-05-17T05:41:24.230Z,20.81
2023-05-17T05:43:52.904Z,20.81
2023-05-17T05:46:21.574Z,20.82
2023-05-17T05:48:50.455Z,20.84
2023-05-17T05:51:22.043Z,20.84
2023-05-17T05:53:52.855Z,20.87
2023-05-17T05:56:21.687Z,20.90
2023-05-17T05:58:50.814Z,20.93
2023-05-17T06:01:19.652Z,20.96
2023-05-17T06:03:49.028Z,20.96
2023-05-17T06:06:18.634Z,20.99
2023-05-17T06:08:48.300Z,21.02
2023-05-17T06:11:17.273Z,21.03
2023-05-17T06:13:46.936Z,21.04
2023-05-17T06:16:15.848Z,21.06
2023-05-17T06:18:44.805Z,21.09
2023-05-17T06:21:16.351Z,21.11
2023-05-17T06:23:45.195Z,21.11
2023-05-17T06:26:15.781Z,21.08
2023-05-17T06:28:47.640Z,21.07
2023-05-17T06:31:19.758Z,21.04
2023-05-17T06:33:50.076Z,20.97
2023-05-17T06:36:18.170Z,20.96
2023-05-17T06:38:46.429Z,20.94
2023-05-17T06:41:15.405Z,20.91
2023-05-17T06:43:44.552Z,20.89
2023-05-17T06:46:12.798Z,20.86
2023-05-17T06:48:42.202Z,20.86
2023-05-17T06:51:11.210Z,20.85
2023-05-17T06:53:40.459Z,20.86
2023-05-17T06:56:09.869Z,20.87
2023-05-17T06:58:39.177Z,20.84
2023-05-17T07:01:08.012Z,20.83
2023-05-17T07:03:38.048Z,20.82
2023-05-17T07:06:07.468Z,20.81
2023-05-17T07:08:36.748Z,20.81
2023-05-17T07:11:06.339Z,20.80
2023-05-17T07:13:35.479Z,20.80
2023-05-17T07:16:03.861Z,20.83
2023-05-17T07:18:33.075Z,20.85
2023-05-17T07:21:02.020Z,20.94
2023-05-17T07:23:31.303Z,21.04
2023-05-17T07:26:00.686Z,21.01
2023-05-17T07:28:29.696Z,20.97
2023-05-17T07:30:58.579Z,20.90
2023-05-17T07:33:28.086Z,20.72
2023-05-17T07:35:57.565Z,20.62
2023-05-17T07:38:27.002Z,20.61
2023-05-17T07:40:56.314Z,20.62
2023-05-17T07:43:25.185Z,20.54
2023-05-17T07:45:54.648Z,20.45
2023-05-17T07:48:24.168Z,20.38
2023-05-17T07:50:53.745Z,20.50
2023-05-17T07:53:22.836Z,20.72
2023-05-17T07:55:51.345Z,20.97
2023-05-17T07:58:24.476Z,21.11
2023-05-17T08:00:59.771Z,21.16
2023-05-17T08:03:29.155Z,21.29
2023-05-17T08:05:58.511Z,21.51
2023-05-17T08:08:27.364Z,21.65
2023-05-17T08:10:56.798Z,21.80
2023-05-17T08:13:26.107Z,21.93
2023-05-17T08:16:01.651Z,22.05
2023-05-17T08:18:41.605Z,22.17
2023-05-17T08:21:10.445Z,22.27
2023-05-17T08:23:39.878Z,22.49
2023-05-17T08:26:09.236Z,22.74
2023-05-17T08:28:38.647Z,23.01
2023-05-17T08:31:07.932Z,23.28
2023-05-17T08:33:37.362Z,23.35
2023-05-17T08:36:06.837Z,23.29
2023-05-17T08:38:36.308Z,23.29
2023-05-17T08:41:05.786Z,23.34
2023-05-17T08:43:35.120Z,23.67
2023-05-17T08:46:04.580Z,24.31
2023-05-17T08:48:33.669Z,24.66
2023-05-17T08:51:02.573Z,24.64
2023-05-17T08:53:31.866Z,24.56
2023-05-17T08:56:01.271Z,24.46
2023-05-17T08:58:32.348Z,24.52
2023-05-17T09:01:02.132Z,24.45
2023-05-17T09:03:31.913Z,24.33
2023-05-17T09:06:04.468Z,24.18
2023-05-17T09:08:32.790Z,24.09
2023-05-17T09:11:02.142Z,24.59
2023-05-17T09:13:31.056Z,25.28
2023-05-17T09:16:00.408Z,25.35
2023-05-17T09:18:29.395Z,25.17
2023-05-17T09:20:58.810Z,25.04
2023-05-17T09:23:27.726Z,25.34
2023-05-17T09:25:57.138Z,25.70
2023-05-17T09:28:26.112Z,26.41
2023-05-17T09:30:55.609Z,26.76
2023-05-17T09:33:24.834Z,26.65
2023-05-17T09:35:53.597Z,26.66
2023-05-17T09:38:24.203Z,26.84
2023-05-17T09:40:54.794Z,27.52
2023-05-17T09:43:24.181Z,28.02
2023-05-17T09:45:53.557Z,28.68
2023-05-17T09:48:26.328Z,29.34
2023-05-17T09:50:54.726Z,29.94
2023-05-17T09:53:23.638Z,30.54
2023-05-17T09:55:53.131Z,30.56
2023-05-17T09:58:22.060Z,30.17
2023-05-17T10:00:51.444Z,29.70
2023-05-17T10:03:20.394Z,29.47
2023-05-17T10:05:49.760Z,29.90
2023-05-17T10:08:18.725Z,30.46
2023-05-17T10:10:47.520Z,30.52
2023-05-17T10:13:16.881Z,30.34
2023-05-17T10:15:45.854Z,30.48
2023-05-17T10:18:15.245Z,31.07
2023-05-17T10:20:44.164Z,31.65
2023-05-17T10:23:13.531Z,32.18
2023-05-17T10:25:42.724Z,32.53
2023-05-17T10:28:11.509Z,32.64
2023-05-17T10:30:40.817Z,32.85
2023-05-17T10:33:09.889Z,33.20
2023-05-17T10:35:42.437Z,33.55
2023-05-17T10:38:11.301Z,33.74
2023-05-17T10:40:40.242Z,34.02
2023-05-17T10:43:09.553Z,34.31
2023-05-17T10:45:39.017Z,34.53
2023-05-17T10:48:07.897Z,34.46
2023-05-17T10:50:37.658Z,34.65
2023-05-17T10:53:07.408Z,34.90
2023-05-17T10:55:36.983Z,35.05
2023-05-17T10:58:06.492Z,35.28
2023-05-17T11:00:35.127Z,35.53
2023-05-17T11:03:03.114Z,35.72
2023-05-17T11:05:33.296Z,35.80
2023-05-17T11:08:03.263Z,35.57
2023-05-17T11:10:31.526Z,35.58
2023-05-17T11:13:00.411Z,35.33
2023-05-17T11:15:29.558Z,34.91
2023-05-17T11:18:00.002Z,34.94
2023-05-17T11:20:28.953Z,34.88
2023-05-17T11:22:57.864Z,35.15
2023-05-17T11:25:27.207Z,35.47
2023-05-17T11:28:00.264Z,35.81
2023-05-17T11:30:29.298Z,36.10
2023-05-17T11:32:58.587Z,35.99
2023-05-17T11:35:28.074Z,35.99
2023-05-17T11:37:57.056Z,35.88
2023-05-17T11:40:25.933Z,36.09
2023-05-17T11:42:54.832Z,36.27
2023-05-17T11:45:24.888Z,36.49
2023-05-17T11:47:53.505Z,36.62
2023-05-17T11:50:22.740Z,36.66
2023-05-17T11:52:50.963Z,36.76
2023-05-17T11:55:20.306Z,36.82
2023-05-17T11:57:49.287Z,36.92
2023-05-17T12:00:18.302Z,36.99
2023-05-17T12:02:47.199Z,37.01
2023-05-17T12:05:16.085Z,37.03
2023-05-17T12:07:44.678Z,37.03
2023-05-17T12:10:13.021Z,37.02
2023-05-17T12:12:42.856Z,37.02
2023-05-17T12:15:12.751Z,37.02
2023-05-17T12:17:42.224Z,36.78
2023-05-17T12:20:11.153Z,36.27
2023-05-17T12:22:40.156Z,35.71
2023-05-17T12:25:09.537Z,35.22
2023-05-17T12:27:38.370Z,34.75
2023-05-17T12:30:07.324Z,34.30
2023-05-17T12:32:37.860Z,33.88
2023-05-17T12:35:09.251Z,33.47
2023-05-17T12:37:40.155Z,33.10
2023-05-17T12:40:09.659Z,32.80
2023-05-17T12:42:39.167Z,32.56
2023-05-17T12:45:08.757Z,32.46
2023-05-17T12:47:37.986Z,32.65
2023-05-17T12:50:06.837Z,32.99
2023-05-17T12:52:36.221Z,33.40
2023-05-17T12:55:05.197Z,33.78
2023-05-17T12:57:33.773Z,34.11
2023-05-17T13:00:02.491Z,34.39
2023-05-17T13:02:31.862Z,34.72
2023-05-17T13:05:00.897Z,35.02
2023-05-17T13:07:29.888Z,35.25
2023-05-17T13:09:59.395Z,35.42
2023-05-17T13:12:28.712Z,35.58
2023-05-17T13:14:57.605Z,35.72
2023-05-17T13:17:26.594Z,35.88
2023-05-17T13:19:55.552Z,36.08
2023-05-17T13:22:26.002Z,36.24
2023-05-17T13:24:55.753Z,36.34
2023-05-17T13:27:25.930Z,36.43
2023-05-17T13:29:55.431Z,36.48
2023-05-17T13:32:24.493Z,36.56
2023-05-17T13:34:53.493Z,36.59
2023-05-17T13:37:22.370Z,36.51
2023-05-17T13:39:51.333Z,36.46
2023-05-17T13:42:20.137Z,36.40
2023-05-17T13:44:49.472Z,36.37
2023-05-17T13:47:18.725Z,36.35
2023-05-17T13:49:48.077Z,36.26
2023-05-17T13:52:17.464Z,36.12
2023-05-17T13:54:46.909Z,35.98
2023-05-17T13:57:15.778Z,35.81
2023-05-17T13:59:45.787Z,35.53
2023-05-17T14:02:15.103Z,34.89
2023-05-17T14:04:43.267Z,33.89
2023-05-17T14:07:12.759Z,32.86
2023-05-17T14:09:41.741Z,31.94
2023-05-17T14:12:11.183Z,31.15
2023-05-17T14:14:40.042Z,30.44
2023-05-17T14:17:09.435Z,29.84
2023-05-17T14:19:38.313Z,29.30
2023-05-17T14:22:07.792Z,28.85
2023-05-17T14:24:37.266Z,28.42
2023-05-17T14:27:06.651Z,28.09
2023-05-17T14:29:35.499Z,27.79
2023-05-17T14:32:04.976Z,27.53
2023-05-17T14:34:33.970Z,27.23
2023-05-17T14:37:03.315Z,26.98
2023-05-17T14:39:32.134Z,26.76
2023-05-17T14:42:00.994Z,26.55
2023-05-17T14:44:30.250Z,26.36
2023-05-17T14:46:59.516Z,26.21
2023-05-17T14:49:28.393Z,26.07
2023-05-17T14:51:57.795Z,25.94
2023-05-17T14:54:27.264Z,25.81
2023-05-17T14:56:56.481Z,25.70
2023-05-17T14:59:25.731Z,25.60
2023-05-17T15:01:55.207Z,25.51
2023-05-17T15:04:24.701Z,25.42
2023-05-17T15:06:54.254Z,25.38
2023-05-17T15:09:23.721Z,25.32
2023-05-17T15:11:52.794Z,25.27
2023-05-17T15:14:21.062Z,25.20
2023-05-17T15:16:50.227Z,25.11
2023-05-17T15:19:18.861Z,25.00
2023-05-17T15:21:47.826Z,24.90
2023-05-17T15:24:17.872Z,24.84
2023-05-17T15:26:46.253Z,24.75
2023-05-17T15:29:15.180Z,24.70
2023-05-17T15:31:44.050Z,24.62
2023-05-17T15:34:13.548Z,24.56
2023-05-17T15:36:46.993Z,24.48
2023-05-17T15:39:16.401Z,24.41
2023-05-17T15:41:45.316Z,24.34
2023-05-17T15:44:14.777Z,24.27
2023-05-17T15:46:44.131Z,24.19
2023-05-17T15:49:13.479Z,24.14
2023-05-17T15:51:42.427Z,24.09
2023-05-17T15:54:11.966Z,24.02
2023-05-17T15:56:41.488Z,23.98
2023-05-17T15:59:10.828Z,23.95
2023-05-17T16:01:40.173Z,23.89
2023-05-17T16:04:09.678Z,23.84
2023-05-17T16:06:39.181Z,23.80
2023-05-17T16:09:08.581Z,23.75
2023-05-17T16:11:38.063Z,23.70
2023-05-17T16:14:07.309Z,23.66
2023-05-17T16:16:35.940Z,23.64
2023-05-17T16:19:05.198Z,23.58
2023-05-17T16:21:34.618Z,23.53
2023-05-17T16:24:03.563Z,23.49
2023-05-17T16:26:32.961Z,23.45
2023-05-17T16:29:02.129Z,23.42
2023-05-17T16:31:30.347Z,23.37
2023-05-17T16:33:59.752Z,23.35
2023-05-17T16:36:28.362Z,23.32
2023-05-17T16:38:57.065Z,23.28
2023-05-17T16:41:25.940Z,23.24
2023-05-17T16:43:54.874Z,23.21
2023-05-17T16:46:23.556Z,23.17
2023-05-17T16:48:52.344Z,23.15
2023-05-17T16:51:21.697Z,23.12
2023-05-17T16:53:51.012Z,23.09
2023-05-17T16:56:20.502Z,23.08
2023-05-17T16:58:49.653Z,23.06
2023-05-17T17:01:18.938Z,23.01
2023-05-17T17:03:48.343Z,22.98
2023-05-17T17:06:17.849Z,22.97
2023-05-17T17:08:46.740Z,22.96
2023-05-17T17:11:16.117Z,22.97
2023-05-17T17:13:44.889Z,22.98
2023-05-17T17:16:14.295Z,23.01
2023-05-17T17:18:43.793Z,23.04
2023-05-17T17:21:13.157Z,22.99
2023-05-17T17:23:42.491Z,23.00
2023-05-17T17:26:11.583Z,22.94
2023-05-17T17:28:39.952Z,22.90
2023-05-17T17:31:08.797Z,22.87
2023-05-17T17:33:37.781Z,22.82
2023-05-17T17:36:06.721Z,22.79
2023-05-17T17:38:36.179Z,22.76
2023-05-17T17:41:05.057Z,22.72
2023-05-17T17:43:33.946Z,22.67
2023-05-17T17:46:02.908Z,22.65
2023-05-17T17:48:32.398Z,22.62
2023-05-17T17:51:01.353Z,22.58
2023-05-17T17:53:30.733Z,22.56
2023-05-17T17:55:59.518Z,22.52
2023-05-17T17:58:28.829Z,22.49
2023-05-17T18:00:58.199Z,22.48
2023-05-17T18:03:28.689Z,22.45
2023-05-17T18:05:57.595Z,22.43
2023-05-17T18:08:26.970Z,22.42
2023-05-17T18:10:56.548Z,22.40
2023-05-17T18:13:26.133Z,22.40
2023-05-17T18:15:55.000Z,22.37
2023-05-17T18:18:23.891Z,22.35
2023-05-17T18:20:52.962Z,22.33
2023-05-17T18:23:21.161Z,22.33
2023-05-17T18:25:50.682Z,22.31
2023-05-17T18:28:26.896Z,22.31
2023-05-17T18:31:06.650Z,22.28
2023-05-17T18:33:35.656Z,22.26
2023-05-17T18:36:03.921Z,22.23
2023-05-17T18:38:32.578Z,22.21
2023-05-17T18:41:01.335Z,22.18
2023-05-17T18:43:30.626Z,22.18
2023-05-17T18:45:59.683Z,22.15
2023-05-17T18:48:28.050Z,22.13
2023-05-17T18:50:57.700Z,22.09
2023-05-17T18:53:27.139Z,22.08
2023-05-17T18:55:56.539Z,22.05
2023-05-17T18:58:25.500Z,22.02
2023-05-17T19:00:54.951Z,22.01
2023-05-17T19:03:24.270Z,21.98
2023-05-17T19:05:53.537Z,21.95
2023-05-17T19:08:22.720Z,21.92
2023-05-17T19:10:51.174Z,21.89
2023-05-17T19:13:19.619Z,21.85
2023-05-17T19:15:48.255Z,21.84
2023-05-17T19:18:17.257Z,21.80
2023-05-17T19:20:46.203Z,21.78
2023-05-17T19:23:15.513Z,21.75
2023-05-17T19:25:44.322Z,21.73
2023-05-17T19:28:13.542Z,21.71
2023-05-17T19:30:42.939Z,21.68
2023-05-17T19:33:11.952Z,21.66
2023-05-17T19:35:41.497Z,21.65
2023-05-17T19:38:10.298Z,21.62
2023-05-17T19:40:39.584Z,21.60
2023-05-17T19:43:08.456Z,21.60
2023-05-17T19:45:37.699Z,21.57
2023-05-17T19:48:06.598Z,21.56
2023-05-17T19:50:36.902Z,21.54
2023-05-17T19:53:08.257Z,21.53
2023-05-17T19:55:39.016Z,21.51
2023-05-17T19:58:08.351Z,21.49
2023-05-17T20:00:37.753Z,21.48
2023-05-17T20:03:07.784Z,21.47
2023-05-17T20:05:37.238Z,21.47
2023-05-17T20:08:06.575Z,21.46
2023-05-17T20:10:35.889Z,21.44
2023-05-17T20:13:04.727Z,21.42
2023-05-17T20:15:34.119Z,21.41
2023-05-17T20:18:03.300Z,21.40
2023-05-17T20:20:32.300Z,21.37
2023-05-17T20:23:01.806Z,21.37
2023-05-17T20:25:30.848Z,21.36
2023-05-17T20:27:59.888Z,21.35
2023-05-17T20:30:29.564Z,21.33
2023-05-17T20:32:58.646Z,21.32
2023-05-17T20:35:28.086Z,21.28
2023-05-17T20:37:57.069Z,21.26
2023-05-17T20:40:26.030Z,21.26
2023-05-17T20:42:55.405Z,21.23
2023-05-17T20:45:24.357Z,21.22
2023-05-17T20:47:53.768Z,21.22
2023-05-17T20:50:23.318Z,21.20
2023-05-17T20:52:52.259Z,21.19
2023-05-17T20:55:21.158Z,21.19
2023-05-17T20:57:49.971Z,21.16
2023-05-17T21:00:19.086Z,21.15
2023-05-17T21:02:48.274Z,21.15
2023-05-17T21:05:17.159Z,21.14
2023-05-17T21:07:46.698Z,21.13
2023-05-17T21:10:16.168Z,21.11
2023-05-17T21:12:45.024Z,21.10
2023-05-17T21:15:17.304Z,21.09
2023-05-17T21:17:47.026Z,21.07
2023-05-17T21:20:15.943Z,21.06
2023-05-17T21:22:45.374Z,21.06
2023-05-17T21:25:14.007Z,21.04
2023-05-17T21:27:42.472Z,21.03
2023-05-17T21:30:11.146Z,21.01
2023-05-17T21:32:40.517Z,20.99
2023-05-17T21:35:09.935Z,20.97
2023-05-17T21:37:39.384Z,20.96
2023-05-17T21:40:08.855Z,20.96
2023-05-17T21:42:37.789Z,20.95
2023-05-17T21:45:06.861Z,20.93
2023-05-17T21:47:36.556Z,20.93
2023-05-17T21:50:05.443Z,20.92
2023-05-17T21:52:34.548Z,20.90
2023-05-17T21:55:03.254Z,20.89
2023-05-17T21:57:32.625Z,20.89
2023-05-17T22:00:01.921Z,20.87
2023-05-17T22:02:34.767Z,20.87
2023-05-17T22:05:03.712Z,20.85
2023-05-17T22:07:33.169Z,20.86
2023-05-17T22:10:02.133Z,20.85
2023-05-17T22:12:31.057Z,20.85
2023-05-17T22:15:00.000Z,20.84
2023-05-17T22:17:35.131Z,20.83
2023-05-17T22:20:12.161Z,20.83
2023-05-17T22:22:41.657Z,20.82
2023-05-17T22:25:11.155Z,20.81
2023-05-17T22:27:40.578Z,20.81
2023-05-17T22:30:09.930Z,20.80
2023-05-17T22:32:38.925Z,20.79
2023-05-17T22:35:07.557Z,20.78
2023-05-17T22:37:36.909Z,20.77
2023-05-17T22:40:06.383Z,20.77
2023-05-17T22:42:35.642Z,20.75
2023-05-17T22:45:04.758Z,20.75
2023-05-17T22:47:33.508Z,20.74
2023-05-17T22:50:02.517Z,20.73
2023-05-17T22:52:31.144Z,20.72
2023-05-17T22:55:00.140Z,20.71
2023-05-17T22:57:29.550Z,20.71
2023-05-17T22:59:58.947Z,20.70
2023-05-17T23:02:28.336Z,20.68
2023-05-17T23:04:57.211Z,20.67
2023-05-17T23:07:26.537Z,20.65
2023-05-17T23:09:55.376Z,20.64
2023-05-17T23:12:24.134Z,20.65
2023-05-17T23:14:53.423Z,20.63
2023-05-17T23:17:22.795Z,20.64
2023-05-17T23:19:52.028Z,20.63
2023-05-17T23:22:20.949Z,20.62
2023-05-17T23:24:49.763Z,20.61
2023-05-17T23:27:19.126Z,20.62
2023-05-17T23:29:48.092Z,20.62
2023-05-17T23:32:17.406Z,20.59
2023-05-17T23:34:46.801Z,20.58
2023-05-17T23:37:16.348Z,20.58
2023-05-17T23:39:45.290Z,20.58
2023-05-17T23:42:14.381Z,20.57
2023-05-17T23:44:43.183Z,20.56
2023-05-17T23:47:11.835Z,20.55
2023-05-17T23:49:40.484Z,20.55
2023-05-17T23:52:09.938Z,20.54
2023-05-17T23:54:39.506Z,20.53
2023-05-17T23:57:08.457Z,20.52
2023-05-17T23:59:37.769Z,20.51
